Time;durP1;ratioP1;P1;durP2;ratioP2;P2;SDS_P1;SDS_P2;PMS_P1;PMS_P2;Temp;Humidity;BMP_temperature;BMP_pressure;BME280_temperature;BME280_humidity;BME280_pressure;Samples;Min_cycle;Max_cycle;Signal;HPM_P1;HPM_P2
2021/12/15 00:00:38;;;;;;;5.65;2.90;;;9.90;99.90;;;;;;5095839;28;20374;-57
2021/12/15 00:03:07;;;;;;;8.32;2.72;;;9.80;99.90;;;;;;5097639;28;20038;-58
2021/12/15 00:05:36;;;;;;;6.60;3.15;;;9.80;99.90;;;;;;5104151;28;20035;-57
2021/12/15 00:08:11;;;;;;;7.10;3.45;;;9.80;99.90;;;;;;5109207;28;20153;-58
2021/12/15 00:10:41;;;;;;;5.25;2.45;;;9.80;99.90;;;;;;5096972;28;20408;-56
2021/12/15 00:13:12;;;;;;;5.20;2.63;;;9.80;99.90;;;;;;5112719;28;20035;-57
2021/12/15 00:15:41;;;;;;;4.15;3.08;;;9.80;99.90;;;;;;5091243;28;20032;-59
2021/12/15 00:18:08;;;;;;;5.57;3.05;;;9.80;99.90;;;;;;5097496;28;20067;-58
2021/12/15 00:20:37;;;;;;;5.65;3.33;;;9.70;99.90;;;;;;5112094;28;20035;-57
2021/12/15 00:23:05;;;;;;;5.45;2.60;;;9.80;99.90;;;;;;5083842;28;20044;-57
2021/12/15 00:25:38;;;;;;;5.53;3.17;;;9.80;99.90;;;;;;5095793;28;20083;-56
2021/12/15 00:28:06;;;;;;;5.22;2.80;;;9.80;99.90;;;;;;5113098;28;20043;-57
2021/12/15 00:30:35;;;;;;;3.67;2.45;;;9.80;99.90;;;;;;5097672;28;20059;-56
2021/12/15 00:33:04;;;;;;;7.95;3.00;;;9.80;99.90;;;;;;5066526;28;20076;-56
2021/12/15 00:35:32;;;;;;;6.05;2.90;;;9.70;99.90;;;;;;5114444;28;20047;-57
2021/12/15 00:37:59;;;;;;;6.55;3.53;;;9.70;99.90;;;;;;5112544;28;20055;-57
2021/12/15 00:40:28;;;;;;;4.93;2.50;;;9.80;99.90;;;;;;5112898;28;20055;-57
2021/12/15 00:42:56;;;;;;;8.32;2.97;;;9.70;99.90;;;;;;5106476;28;20095;-57
2021/12/15 00:45:26;;;;;;;7.95;2.88;;;9.80;99.90;;;;;;5111607;28;20039;-58
2021/12/15 00:47:54;;;;;;;5.75;2.97;;;9.70;99.90;;;;;;5109891;28;20393;-57
2021/12/15 00:50:27;;;;;;;7.93;3.15;;;9.70;99.90;;;;;;5102630;28;20027;-57
2021/12/15 00:52:56;;;;;;;4.82;2.58;;;9.70;99.90;;;;;;5113243;28;20032;-59
2021/12/15 00:55:26;;;;;;;6.90;3.08;;;9.70;99.90;;;;;;5085404;28;20042;-59
2021/12/15 00:57:54;;;;;;;5.22;2.92;;;9.70;99.90;;;;;;5095371;28;20101;-59
2021/12/15 01:00:26;;;;;;;5.53;2.55;;;9.70;99.90;;;;;;5089828;28;20115;-58
2021/12/15 01:02:55;;;;;;;4.97;3.40;;;9.70;99.90;;;;;;5096468;28;20082;-59
2021/12/15 01:05:27;;;;;;;7.47;2.70;;;9.70;99.90;;;;;;5095748;28;20036;-58
2021/12/15 01:07:55;;;;;;;5.80;2.67;;;9.70;99.90;;;;;;5092866;28;20089;-57
2021/12/15 01:10:30;;;;;;;6.18;3.10;;;9.70;99.90;;;;;;5074523;28;20048;-55
2021/12/15 01:21:10;;;;;;;4.60;2.75;;;9.80;99.90;;;;;;5113803;28;20088;-57
2021/12/15 01:23:38;;;;;;;15.73;3.65;;;9.80;99.90;;;;;;5113584;28;20032;-57
2021/12/15 01:26:13;;;;;;;7.68;3.67;;;9.80;99.90;;;;;;5091729;28;20374;-57
2021/12/15 01:28:41;;;;;;;7.32;3.45;;;9.80;99.90;;;;;;5094448;28;20557;-56
2021/12/15 01:31:10;;;;;;;5.47;3.95;;;9.80;99.90;;;;;;5109356;28;20040;-57
2021/12/15 01:33:40;;;;;;;4.15;2.72;;;9.80;99.90;;;;;;5107140;28;20031;-57
2021/12/15 01:36:09;;;;;;;4.57;2.60;;;9.80;99.90;;;;;;5095314;28;20144;-56
2021/12/15 01:38:41;;;;;;;5.35;2.95;;;9.80;99.90;;;;;;5089622;28;20031;-58
2021/12/15 01:41:18;;;;;;;4.82;2.35;;;9.80;99.90;;;;;;5102681;28;20027;-58
2021/12/15 01:46:56;;;;;;;5.32;2.50;;;9.70;99.90;;;;;;5086755;28;20382;-57
2021/12/15 01:49:37;;;;;;;13.20;3.20;;;9.70;99.90;;;;;;5091678;28;20082;-57
2021/12/15 01:52:15;;;;;;;3.95;2.45;;;9.70;99.90;;;;;;5110144;28;20038;-57
2021/12/15 01:54:49;;;;;;;5.13;3.10;;;9.70;99.90;;;;;;5095980;28;20097;-56
2021/12/15 01:57:18;;;;;;;5.25;2.60;;;9.70;99.90;;;;;;5095228;28;20039;-58
2021/12/15 01:59:48;;;;;;;5.97;2.83;;;9.70;99.90;;;;;;5066259;28;20177;-57
2021/12/15 02:02:17;;;;;;;5.75;2.95;;;9.70;99.90;;;;;;5067595;28;20490;-58
2021/12/15 02:04:48;;;;;;;6.18;3.28;;;9.80;99.90;;;;;;5059145;28;20083;-56
2021/12/15 02:07:18;;;;;;;10.18;3.35;;;9.80;99.90;;;;;;5106548;28;20127;-58
2021/12/15 02:12:27;;;;;;;5.60;3.42;;;9.80;99.90;;;;;;5111693;28;20043;-56
2021/12/15 02:14:58;;;;;;;5.22;2.42;;;9.80;99.90;;;;;;5077045;28;20052;-57
2021/12/15 02:17:26;;;;;;;6.72;2.78;;;9.80;99.90;;;;;;5095622;28;20127;-56
2021/12/15 02:19:54;;;;;;;9.40;3.10;;;9.80;99.90;;;;;;5072234;28;20130;-57
2021/12/15 02:22:23;;;;;;;7.30;2.95;;;9.80;99.90;;;;;;5081105;28;20385;-57
2021/12/15 02:24:52;;;;;;;7.35;2.47;;;9.80;99.90;;;;;;5075555;28;20470;-57
2021/12/15 02:27:21;;;;;;;4.78;3.20;;;9.80;99.90;;;;;;5059091;28;20044;-58
2021/12/15 02:29:52;;;;;;;4.00;2.50;;;9.80;99.90;;;;;;5058725;28;20035;-58
2021/12/15 02:32:34;;;;;;;6.32;2.95;;;9.80;99.90;;;;;;5093547;28;20102;-57
2021/12/15 02:37:49;;;;;;;5.75;2.65;;;9.80;99.90;;;;;;5075193;28;20044;-57
2021/12/15 02:40:18;;;;;;;5.85;2.90;;;9.90;99.90;;;;;;5075490;28;20047;-56
2021/12/15 02:42:48;;;;;;;3.58;2.55;;;9.80;99.90;;;;;;5059461;28;20039;-57
2021/12/15 02:45:20;;;;;;;4.97;2.40;;;9.80;99.90;;;;;;5093724;28;20044;-57
2021/12/15 02:47:48;;;;;;;6.47;2.42;;;9.80;99.90;;;;;;5093596;28;20047;-57
2021/12/15 02:50:20;;;;;;;5.00;2.78;;;9.80;99.90;;;;;;5075858;28;20119;-57
2021/12/15 02:52:48;;;;;;;5.53;2.42;;;9.80;99.90;;;;;;5093882;28;20036;-58
2021/12/15 02:55:16;;;;;;;12.05;3.72;;;9.80;99.90;;;;;;5075689;28;20417;-58
2021/12/15 02:57:49;;;;;;;7.28;2.70;;;9.80;99.90;;;;;;5075433;28;20040;-57
2021/12/15 03:00:29;;;;;;;5.55;2.55;;;9.80;99.90;;;;;;5093792;28;20462;-57
2021/12/15 03:05:39;;;;;;;4.18;2.42;;;9.80;99.90;;;;;;5075564;28;20075;-58
2021/12/15 03:16:14;;;;;;;4.93;2.53;;;9.80;99.90;;;;;;5075384;28;20051;-57
2021/12/15 03:18:42;;;;;;;5.93;2.63;;;9.80;99.90;;;;;;5093421;28;20059;-57
2021/12/15 03:21:21;;;;;;;5.30;2.47;;;9.80;99.90;;;;;;5075302;28;20047;-58
2021/12/15 03:23:56;;;;;;;8.13;2.40;;;9.80;99.90;;;;;;5093447;28;20036;-57
2021/12/15 03:26:35;;;;;;;12.45;2.72;;;9.80;99.90;;;;;;5093333;28;20047;-57
2021/12/15 03:37:26;;;;;;;3.72;2.35;;;9.80;99.90;;;;;;5075443;28;20074;-54
2021/12/15 03:39:58;;;;;;;7.45;2.67;;;9.80;99.90;;;;;;5075283;28;20374;-56
2021/12/15 03:42:35;;;;;;;3.95;2.05;;;9.70;99.90;;;;;;5093220;28;20404;-56
2021/12/15 03:45:06;;;;;;;3.70;1.92;;;9.70;99.90;;;;;;5093223;28;20032;-56
2021/12/15 03:47:37;;;;;;;7.03;2.58;;;9.80;99.90;;;;;;5074794;28;20048;-58
2021/12/15 03:50:08;;;;;;;9.23;2.55;;;9.80;99.90;;;;;;5076344;28;20047;-57
2021/12/15 03:52:35;;;;;;;5.25;3.65;;;9.80;99.90;;;;;;5078914;28;20044;-57
2021/12/15 03:55:04;;;;;;;3.80;2.10;;;9.70;99.90;;;;;;5078566;28;20036;-57
2021/12/15 03:57:32;;;;;;;9.52;2.30;;;9.70;99.90;;;;;;5096638;28;20374;-56
2021/12/15 04:00:00;;;;;;;4.18;2.90;;;9.70;99.90;;;;;;5077999;28;20044;-56
2021/12/15 04:02:38;;;;;;;4.35;2.40;;;9.70;99.90;;;;;;5078566;28;20067;-57
2021/12/15 04:05:07;;;;;;;4.95;2.15;;;9.70;99.90;;;;;;5078611;28;20040;-54
2021/12/15 04:07:37;;;;;;;4.65;2.38;;;9.70;99.90;;;;;;5061819;28;20520;-57
2021/12/15 04:10:11;;;;;;;4.85;2.08;;;9.70;99.90;;;;;;5096615;28;20035;-56
2021/12/15 04:12:40;;;;;;;7.40;2.63;;;9.60;99.90;;;;;;5096431;28;20101;-56
2021/12/15 04:17:54;;;;;;;4.53;2.17;;;9.70;99.90;;;;;;5078297;28;20048;-56
2021/12/15 04:20:23;;;;;;;4.20;2.92;;;9.60;99.90;;;;;;5096103;28;20044;-57
2021/12/15 04:22:51;;;;;;;5.57;2.17;;;9.70;99.90;;;;;;5096083;28;20534;-56
2021/12/15 04:25:24;;;;;;;6.10;2.50;;;9.70;99.90;;;;;;5096071;28;20032;-56
2021/12/15 04:28:03;;;;;;;8.98;3.42;;;9.70;99.90;;;;;;5061974;28;20410;-56
2021/12/15 04:30:35;;;;;;;5.82;2.60;;;9.70;99.90;;;;;;5096008;28;20386;-57
2021/12/15 04:33:12;;;;;;;4.28;1.80;;;9.70;99.90;;;;;;5078031;28;20048;-56
2021/12/15 04:35:42;;;;;;;24.48;3.17;;;9.60;99.90;;;;;;5095977;28;20040;-55
2021/12/15 04:38:11;;;;;;;5.53;2.40;;;9.60;99.90;;;;;;5096083;28;20063;-58
2021/12/15 04:40:40;;;;;;;4.20;1.90;;;9.60;99.90;;;;;;5096200;28;20036;-57
2021/12/15 04:43:08;;;;;;;3.95;2.55;;;9.60;99.90;;;;;;5078040;28;20458;-56
2021/12/15 04:45:36;;;;;;;2.72;1.88;;;9.60;99.90;;;;;;5061631;28;20036;-57
2021/12/15 04:48:04;;;;;;;3.53;2.25;;;9.60;99.90;;;;;;5061105;28;20057;-56
2021/12/15 04:50:32;;;;;;;3.35;2.30;;;9.70;99.90;;;;;;5077968;28;20412;-57
2021/12/15 04:53:02;;;;;;;2.65;1.63;;;9.70;99.90;;;;;;5077624;28;20032;-53
2021/12/15 04:55:33;;;;;;;3.10;2.13;;;9.70;99.90;;;;;;5077873;28;20481;-57
2021/12/15 04:58:03;;;;;;;5.55;2.28;;;9.70;99.90;;;;;;5077200;28;20501;-57
2021/12/15 05:00:34;;;;;;;5.65;2.33;;;9.60;99.90;;;;;;5077254;28;20044;-57
2021/12/15 05:03:06;;;;;;;8.32;2.38;;;9.60;99.90;;;;;;5095609;28;20032;-55
2021/12/15 05:05:34;;;;;;;4.78;1.95;;;9.60;99.90;;;;;;5095343;28;20077;-57
2021/12/15 05:08:03;;;;;;;5.78;2.45;;;9.70;99.90;;;;;;5095243;28;20040;-57
2021/12/15 05:10:32;;;;;;;5.32;3.13;;;9.70;99.90;;;;;;5095377;28;20047;-56
2021/12/15 05:13:01;;;;;;;5.47;2.55;;;9.70;99.90;;;;;;5077363;28;20067;-57
2021/12/15 05:15:29;;;;;;;8.18;2.58;;;9.70;99.90;;;;;;5095154;28;20035;-57
2021/12/15 05:17:57;;;;;;;3.35;2.50;;;9.70;99.90;;;;;;5094506;28;20070;-58
2021/12/15 05:20:25;;;;;;;8.95;3.20;;;9.70;99.90;;;;;;5111310;28;20381;-58
2021/12/15 05:22:54;;;;;;;6.88;2.70;;;9.70;99.90;;;;;;5107401;28;20169;-58
2021/12/15 05:25:22;;;;;;;8.60;2.28;;;9.70;99.90;;;;;;5096403;28;20043;-57
2021/12/15 05:27:50;;;;;;;6.57;3.40;;;9.70;99.90;;;;;;5113123;28;20035;-59
2021/12/15 05:30:19;;;;;;;4.50;2.58;;;9.70;99.90;;;;;;5104999;28;20120;-58
2021/12/15 05:32:47;;;;;;;6.38;3.20;;;9.70;99.90;;;;;;5091800;28;20036;-58
2021/12/15 05:35:21;;;;;;;4.40;2.55;;;9.70;99.90;;;;;;5091837;28;20039;-58
2021/12/15 05:37:52;;;;;;;4.47;2.58;;;9.70;99.90;;;;;;5107226;28;20097;-58
2021/12/15 05:40:21;;;;;;;5.75;2.90;;;9.60;99.90;;;;;;5098251;28;20066;-58
2021/12/15 05:42:49;;;;;;;4.35;2.83;;;9.60;99.90;;;;;;5102190;28;20067;-57
2021/12/15 05:45:16;;;;;;;5.45;3.92;;;9.60;99.90;;;;;;5104647;28;20130;-56
2021/12/15 05:47:44;;;;;;;6.13;2.72;;;9.60;99.90;;;;;;5071508;28;20416;-58
2021/12/15 05:50:13;;;;;;;7.57;3.65;;;9.60;99.90;;;;;;5106902;28;20504;-58
2021/12/15 05:52:41;;;;;;;4.68;2.70;;;9.60;99.90;;;;;;5094783;28;20059;-58
2021/12/15 05:55:11;;;;;;;4.78;2.33;;;9.60;99.90;;;;;;5111643;28;20165;-58
2021/12/15 05:57:38;;;;;;;5.07;2.38;;;9.70;99.90;;;;;;5111457;28;20028;-57
2021/12/15 06:00:12;;;;;;;4.22;2.55;;;9.70;99.90;;;;;;5114687;28;20039;-57
2021/12/15 06:02:40;;;;;;;5.28;3.20;;;9.70;99.90;;;;;;5114750;28;20046;-57
2021/12/15 06:05:09;;;;;;;3.38;2.08;;;9.80;99.90;;;;;;5079501;28;20052;-57
2021/12/15 06:07:38;;;;;;;4.07;1.88;;;9.70;99.90;;;;;;5096472;28;20043;-56
2021/12/15 06:10:09;;;;;;;3.80;2.40;;;9.70;99.90;;;;;;5096309;28;20096;-57
2021/12/15 06:12:37;;;;;;;4.68;2.42;;;9.70;99.90;;;;;;5095892;28;20038;-57
2021/12/15 06:15:06;;;;;;;5.85;3.25;;;9.80;99.90;;;;;;5114260;28;20113;-58
2021/12/15 06:17:34;;;;;;;6.95;3.55;;;9.80;99.90;;;;;;5079486;28;20039;-57
2021/12/15 06:20:03;;;;;;;5.13;2.65;;;10.10;99.90;;;;;;5079604;28;20081;-57
2021/12/15 06:22:33;;;;;;;7.20;2.90;;;10.30;99.90;;;;;;5096304;28;20122;-57
2021/12/15 06:25:00;;;;;;;5.18;3.25;;;10.80;99.90;;;;;;5095715;28;20036;-57
2021/12/15 06:27:29;;;;;;;6.13;2.47;;;11.30;99.50;;;;;;5114161;28;20594;-57
2021/12/15 06:29:57;;;;;;;5.78;2.88;;;11.70;98.60;;;;;;5114358;28;20522;-58
2021/12/15 06:32:25;;;;;;;4.82;1.95;;;12.20;97.90;;;;;;5095468;28;20055;-57
2021/12/15 06:34:53;;;;;;;4.22;2.28;;;12.70;97.40;;;;;;5095904;28;20038;-58
2021/12/15 06:37:21;;;;;;;5.60;2.53;;;13.20;96.60;;;;;;5113968;28;20418;-58
2021/12/15 06:39:49;;;;;;;7.53;3.60;;;13.80;95.90;;;;;;5114099;28;20028;-57
2021/12/15 06:42:16;;;;;;;6.65;2.88;;;14.30;95.50;;;;;;5095937;28;20474;-58
2021/12/15 06:44:46;;;;;;;9.13;3.42;;;14.60;95.00;;;;;;5078937;28;20051;-57
2021/12/15 06:47:45;;;;;;;12.65;3.45;;;15.10;94.40;;;;;;5113872;28;20086;-58
2021/12/15 06:58:27;;;;;;;5.75;2.60;;;17.10;92.00;;;;;;5113976;28;20044;-57
2021/12/15 07:00:58;;;;;;;4.85;2.30;;;17.50;91.60;;;;;;5095489;28;20028;-58
2021/12/15 07:03:26;;;;;;;4.18;2.10;;;18.10;90.90;;;;;;5113744;28;20036;-59
2021/12/15 07:05:57;;;;;;;3.15;2.13;;;18.50;90.40;;;;;;5095750;28;20100;-57
2021/12/15 07:08:28;;;;;;;5.30;2.05;;;18.80;89.70;;;;;;5113725;28;20477;-58
2021/12/15 07:10:58;;;;;;;6.00;2.22;;;19.30;88.50;;;;;;5095958;28;20054;-58
2021/12/15 07:13:26;;;;;;;3.92;1.98;;;19.50;87.70;;;;;;5113905;28;20335;-58
2021/12/15 07:16:01;;;;;;;3.45;2.17;;;20.00;85.40;;;;;;5105755;28;20039;-58
2021/12/15 07:19:10;;;;;;;4.00;2.10;;;20.40;84.70;;;;;;5113632;28;20036;-57
2021/12/15 07:21:33;;;;;;;4.38;2.22;;;20.90;83.00;;;;;;5109504;28;20070;-57
2021/12/15 07:24:02;;;;;;;4.18;2.13;;;21.30;81.60;;;;;;5113885;28;20074;-57
2021/12/15 07:26:30;;;;;;;6.05;2.03;;;21.40;80.70;;;;;;5098969;28;20039;-58
2021/12/15 07:28:58;;;;;;;3.95;2.15;;;21.90;79.50;;;;;;5117354;28;20134;-58
2021/12/15 07:31:25;;;;;;;5.72;2.40;;;22.20;78.30;;;;;;5117526;28;20042;-58
2021/12/15 07:33:53;;;;;;;3.70;2.28;;;22.30;77.30;;;;;;5117725;28;20039;-58
2021/12/15 07:36:21;;;;;;;3.63;1.85;;;22.50;76.60;;;;;;5117575;28;20048;-58
2021/12/15 07:38:49;;;;;;;3.20;2.03;;;22.40;76.50;;;;;;5117373;28;20043;-57
2021/12/15 07:41:54;;;;;;;8.45;2.80;;;22.30;76.50;;;;;;5082261;28;20481;-58
2021/12/15 07:44:12;;;;;;;3.53;2.30;;;22.20;76.30;;;;;;5095067;28;20350;-59
2021/12/15 07:46:52;;;;;;;6.05;3.03;;;21.40;76.60;;;;;;5099215;28;20381;-58
2021/12/15 07:49:22;;;;;;;4.88;2.25;;;21.20;77.60;;;;;;5117319;28;20126;-58
2021/12/15 07:51:58;;;;;;;4.72;2.17;;;20.80;78.00;;;;;;5117157;28;20469;-58
2021/12/15 07:54:27;;;;;;;5.35;2.50;;;20.30;78.60;;;;;;5117168;28;20032;-58
2021/12/15 07:56:55;;;;;;;4.93;2.58;;;20.20;79.50;;;;;;5116924;28;20118;-57
2021/12/15 07:59:23;;;;;;;4.75;2.60;;;19.80;79.30;;;;;;5116753;28;20043;-58
2021/12/15 08:01:51;;;;;;;3.65;2.08;;;19.70;79.90;;;;;;5099128;28;20115;-57
2021/12/15 08:04:19;;;;;;;5.32;2.35;;;19.50;80.60;;;;;;5116909;28;20046;-58
2021/12/15 08:06:47;;;;;;;3.58;2.45;;;19.30;80.90;;;;;;5116957;28;20089;-57
2021/12/15 08:09:16;;;;;;;3.55;2.30;;;19.00;81.50;;;;;;5098660;28;20148;-58
2021/12/15 08:11:44;;;;;;;7.28;2.78;;;18.70;81.30;;;;;;5116893;28;20042;-58
2021/12/15 08:14:12;;;;;;;5.03;2.40;;;18.50;81.80;;;;;;5116796;28;20432;-58
2021/12/15 08:16:40;;;;;;;5.25;2.40;;;18.40;82.80;;;;;;5116814;28;20039;-57
2021/12/15 08:19:09;;;;;;;6.93;2.17;;;18.50;82.70;;;;;;5116503;28;20081;-58
2021/12/15 08:21:37;;;;;;;5.30;2.13;;;18.30;83.50;;;;;;5116655;28;20123;-57
2021/12/15 08:24:05;;;;;;;3.55;2.35;;;17.80;83.60;;;;;;5098440;28;20035;-57
2021/12/15 08:26:33;;;;;;;3.60;2.22;;;17.70;84.60;;;;;;5116629;28;20032;-58
2021/12/15 08:29:01;;;;;;;3.85;2.30;;;17.70;84.90;;;;;;5116564;28;20081;-57
2021/12/15 08:31:28;;;;;;;4.45;2.60;;;17.60;85.60;;;;;;5116686;28;20055;-58
2021/12/15 08:33:56;;;;;;;3.85;2.63;;;17.30;85.80;;;;;;5116409;28;20064;-57
2021/12/15 08:36:24;;;;;;;6.90;2.35;;;17.00;86.60;;;;;;5097589;28;20040;-57
2021/12/15 08:38:52;;;;;;;4.63;2.75;;;16.70;87.10;;;;;;5116391;28;20035;-57
2021/12/15 08:41:26;;;;;;;3.88;2.67;;;16.50;87.90;;;;;;5116262;28;20119;-57
2021/12/15 08:43:56;;;;;;;3.42;1.90;;;16.40;88.90;;;;;;5116345;28;20450;-57
2021/12/15 08:46:28;;;;;;;4.20;1.90;;;16.20;89.00;;;;;;5115946;28;20438;-58
2021/12/15 08:48:57;;;;;;;4.60;2.13;;;16.00;90.00;;;;;;5116133;28;20032;-57
2021/12/15 08:51:27;;;;;;;7.22;2.88;;;15.90;90.30;;;;;;5097864;28;20138;-57
2021/12/15 08:54:08;;;;;;;3.20;2.25;;;15.80;90.50;;;;;;5116130;28;20126;-58
2021/12/15 08:56:36;;;;;;;2.85;1.80;;;15.70;90.70;;;;;;5097631;28;20426;-57
2021/12/15 08:59:05;;;;;;;3.53;2.10;;;15.70;90.50;;;;;;5116142;28;20071;-56
2021/12/15 09:01:33;;;;;;;5.90;3.28;;;15.80;90.80;;;;;;5115705;28;20469;-58
2021/12/15 09:04:03;;;;;;;3.25;2.15;;;15.50;90.70;;;;;;5080717;28;20489;-58
2021/12/15 09:06:32;;;;;;;3.38;2.45;;;15.50;90.70;;;;;;5097683;28;20044;-58
2021/12/15 09:08:59;;;;;;;2.63;2.40;;;15.30;90.70;;;;;;5115774;28;20040;-57
2021/12/15 09:11:27;;;;;;;3.75;1.67;;;15.30;90.90;;;;;;5115608;28;20036;-58
2021/12/15 09:13:59;;;;;;;5.28;2.35;;;15.20;90.80;;;;;;5097662;28;20481;-58
2021/12/15 09:16:30;;;;;;;7.65;2.50;;;15.10;91.20;;;;;;5115619;28;20031;-58
2021/12/15 09:19:02;;;;;;;4.32;2.40;;;15.20;91.40;;;;;;5115769;28;20127;-57
2021/12/15 09:21:32;;;;;;;3.92;2.67;;;15.20;91.20;;;;;;5115512;28;20043;-58
2021/12/15 09:24:03;;;;;;;6.72;2.20;;;15.30;91.30;;;;;;5115416;28;20347;-58
2021/12/15 09:26:31;;;;;;;3.80;1.90;;;15.30;91.40;;;;;;5097219;28;20039;-58
2021/12/15 09:28:59;;;;;;;3.50;1.80;;;15.60;91.50;;;;;;5097019;28;20454;-58
2021/12/15 09:31:27;;;;;;;4.30;1.38;;;15.60;91.20;;;;;;5097535;28;20050;-58
2021/12/15 09:33:57;;;;;;;3.85;1.75;;;15.60;91.20;;;;;;5115496;28;20047;-58
2021/12/15 09:36:26;;;;;;;4.47;2.47;;;15.70;91.20;;;;;;5115296;28;20031;-58
2021/12/15 09:38:59;;;;;;;4.10;1.88;;;15.80;91.20;;;;;;5115164;28;20047;-57
2021/12/15 09:41:27;;;;;;;3.00;1.95;;;15.80;91.10;;;;;;5115015;28;20122;-58
2021/12/15 09:43:57;;;;;;;2.88;1.85;;;15.70;90.90;;;;;;5115218;28;20035;-57
2021/12/15 10:03:05;;;;;;;3.22;1.80;;;15.60;90.80;;;;;;5106650;28;20069;-58
2021/12/15 10:05:45;;;;;;;4.22;2.10;;;15.70;90.90;;;;;;5096695;28;20040;-58
2021/12/15 10:19:51;;;;;;;4.82;3.05;;;15.80;91.20;;;;;;5114565;28;20044;-58
2021/12/15 10:25:06;;;;;;;6.85;2.25;;;15.90;91.20;;;;;;5114411;28;20046;-58
2021/12/15 10:27:43;;;;;;;2.80;2.28;;;15.90;91.20;;;;;;5114311;28;20110;-58
2021/12/15 10:30:27;;;;;;;3.80;2.20;;;16.00;91.10;;;;;;5114153;28;20382;-58
2021/12/15 10:33:03;;;;;;;2.47;1.77;;;16.10;91.00;;;;;;5114270;28;20035;-57
2021/12/15 10:35:40;;;;;;;5.13;3.03;;;16.10;90.70;;;;;;5114141;28;20042;-58
2021/12/15 10:38:19;;;;;;;3.05;1.75;;;16.10;90.80;;;;;;5114176;28;20079;-57
2021/12/15 10:41:00;;;;;;;4.68;2.03;;;15.70;90.60;;;;;;5114316;28;20062;-57
2021/12/15 10:43:33;;;;;;;11.18;1.65;;;15.60;91.10;;;;;;5114229;28;20035;-57
2021/12/15 10:46:26;;;;;;;2.85;1.60;;;15.70;91.10;;;;;;5114410;28;20039;-56
2021/12/15 10:49:11;;;;;;;3.65;1.67;;;15.70;91.40;;;;;;5096195;28;20039;-57
2021/12/15 10:51:59;;;;;;;4.68;2.17;;;15.80;91.40;;;;;;5095305;28;20097;-57
2021/12/15 10:54:34;;;;;;;7.25;2.55;;;15.90;91.30;;;;;;5113932;28;20031;-57
2021/12/15 10:57:18;;;;;;;4.47;2.53;;;15.90;91.30;;;;;;5095868;28;20043;-57
2021/12/15 10:59:50;;;;;;;4.70;2.28;;;15.90;91.60;;;;;;5097149;28;20055;-57
2021/12/15 11:02:35;;;;;;;5.55;2.72;;;15.70;91.50;;;;;;5085563;28;20036;-56
2021/12/15 11:05:06;;;;;;;4.70;3.03;;;15.60;91.60;;;;;;5118214;28;20039;-57
2021/12/15 11:08:00;;;;;;;3.30;1.88;;;15.60;91.60;;;;;;5118103;28;20058;-57
2021/12/15 11:10:31;;;;;;;5.20;3.60;;;15.50;91.50;;;;;;5097635;28;20048;-57
2021/12/15 11:13:02;;;;;;;6.50;3.80;;;15.50;91.60;;;;;;5117762;28;20114;-57
2021/12/15 11:15:45;;;;;;;5.53;3.90;;;15.60;91.60;;;;;;5117887;28;20498;-58
2021/12/15 11:18:20;;;;;;;5.13;3.47;;;15.70;91.50;;;;;;5118059;28;20435;-58
2021/12/15 11:20:57;;;;;;;4.95;3.17;;;15.60;91.50;;;;;;5099844;28;20032;-58
2021/12/15 11:23:31;;;;;;;5.03;3.15;;;15.60;91.70;;;;;;5117841;28;20356;-57
2021/12/15 11:26:04;;;;;;;5.32;3.08;;;15.50;91.40;;;;;;5117821;28;20039;-57
2021/12/15 11:28:44;;;;;;;3.53;2.25;;;15.30;91.60;;;;;;5117959;28;20042;-57
2021/12/15 11:31:23;;;;;;;3.53;1.90;;;15.30;91.90;;;;;;5117805;28;20073;-56
2021/12/15 11:34:00;;;;;;;3.83;2.33;;;15.30;92.10;;;;;;5117688;28;20058;-57
2021/12/15 11:36:32;;;;;;;;;;;15.40;92.60;;;;;;5117822;28;20074;-58
2021/12/15 11:39:03;;;;;;;5.65;2.78;;;15.50;92.40;;;;;;5117773;28;19916;-58
2021/12/15 11:41:36;;;;;;;4.18;2.33;;;15.60;92.10;;;;;;5117360;28;20044;-58
2021/12/15 11:44:05;;;;;;;3.30;2.20;;;15.40;91.60;;;;;;5117458;28;20035;-58
2021/12/15 11:46:42;;;;;;;6.43;2.10;;;15.40;91.80;;;;;;5117196;28;20039;-58
2021/12/15 11:49:16;;;;;;;4.25;1.90;;;15.40;91.80;;;;;;5117389;28;20070;-58
2021/12/15 11:51:50;;;;;;;3.90;2.38;;;15.40;92.00;;;;;;5099210;28;20043;-58
2021/12/15 11:54:28;;;;;;;4.78;2.30;;;15.50;91.90;;;;;;5117532;28;20332;-58
2021/12/15 11:56:57;;;;;;;4.57;2.83;;;15.50;91.70;;;;;;5117362;28;20067;-58
2021/12/15 11:59:38;;;;;;;4.38;2.00;;;15.60;91.70;;;;;;5098775;28;20474;-58
2021/12/15 12:02:19;;;;;;;4.95;2.28;;;15.40;91.70;;;;;;5099039;28;20470;-58
2021/12/15 12:04:52;;;;;;;4.15;2.40;;;15.40;91.90;;;;;;5098695;28;20382;-59
2021/12/15 12:07:22;;;;;;;3.92;2.40;;;15.40;92.10;;;;;;5116988;28;20043;-58
2021/12/15 12:10:09;;;;;;;4.35;2.75;;;15.40;92.30;;;;;;5116863;28;20042;-58
2021/12/15 12:12:41;;;;;;;;;;;15.30;92.20;;;;;;5117219;28;20040;-58
2021/12/15 12:15:13;;;;;;;5.95;2.88;;;15.30;92.20;;;;;;5116863;28;20060;-60
2021/12/15 12:17:46;;;;;;;3.55;2.40;;;15.40;92.60;;;;;;5116668;28;20120;-59
2021/12/15 12:20:39;;;;;;;4.13;2.88;;;15.50;92.70;;;;;;5116436;28;20443;-59
2021/12/15 12:23:10;;;;;;;4.78;2.17;;;15.50;92.30;;;;;;5116650;28;20041;-59
2021/12/15 12:25:41;;;;;;;5.07;2.80;;;15.40;92.10;;;;;;5098693;28;20138;-59
2021/12/15 12:28:12;;;;;;;4.60;3.13;;;15.30;92.30;;;;;;5116548;28;20039;-58
2021/12/15 12:30:44;;;;;;;6.60;3.10;;;15.30;92.10;;;;;;5116405;28;20043;-59
2021/12/15 12:33:14;;;;;;;5.95;3.15;;;15.20;92.30;;;;;;5116509;28;20059;-59
2021/12/15 12:36:15;;;;;;;7.90;3.92;;;15.00;92.40;;;;;;5098544;28;20071;-57
2021/12/15 12:38:55;;;;;;;3.00;2.10;;;15.00;93.30;;;;;;5111314;28;20044;-58
2021/12/15 12:41:30;;;;;;;4.40;2.85;;;15.10;92.80;;;;;;5116170;28;20484;-58
2021/12/15 12:44:04;;;;;;;6.15;3.00;;;15.00;92.90;;;;;;5116392;28;20122;-58
2021/12/15 12:46:44;;;;;;;4.75;2.83;;;15.00;92.90;;;;;;5116104;28;20043;-58
2021/12/15 13:00:50;;;;;;;7.75;3.28;;;15.00;93.70;;;;;;5115789;28;20039;-58
2021/12/15 13:03:27;;;;;;;8.18;2.88;;;14.90;93.10;;;;;;5098005;28;20077;-58
2021/12/15 13:05:58;;;;;;;5.32;3.13;;;14.90;92.90;;;;;;5097650;28;20035;-58
2021/12/15 13:08:29;;;;;;;8.27;4.50;;;14.90;93.00;;;;;;5097518;28;20027;-57
2021/12/15 13:11:05;;;;;;;7.32;4.93;;;14.80;92.90;;;;;;5115654;28;20040;-58
2021/12/15 13:13:37;;;;;;;6.32;3.85;;;14.80;93.20;;;;;;5115669;28;20040;-58
2021/12/15 13:16:11;;;;;;;7.72;4.60;;;14.80;93.20;;;;;;5097668;28;20031;-58
2021/12/15 13:18:53;;;;;;;6.28;3.70;;;14.70;93.10;;;;;;5115502;28;20093;-58
2021/12/15 13:21:46;;;;;;;7.13;3.22;;;14.70;93.00;;;;;;5115197;28;20381;-58
2021/12/15 13:30:56;;;;;;;7.60;3.35;;;14.50;93.00;;;;;;5115069;28;20144;-58
2021/12/15 13:33:29;;;;;;;4.63;2.42;;;14.50;93.00;;;;;;5097094;28;20412;-58
2021/12/15 13:36:22;;;;;;;5.10;2.92;;;14.50;93.10;;;;;;5114728;28;20033;-58
2021/12/15 13:38:55;;;;;;;5.72;3.08;;;14.30;93.00;;;;;;5097135;28;20062;-58
2021/12/15 13:44:30;;;;;;;5.00;1.88;;;14.20;93.10;;;;;;5096633;28;20036;-58
2021/12/15 13:47:01;;;;;;;3.58;1.92;;;14.10;93.30;;;;;;5096714;28;20043;-58
2021/12/15 13:49:45;;;;;;;6.95;2.75;;;14.10;93.30;;;;;;5096814;28;20557;-57
2021/12/15 13:52:52;;;;;;;5.57;3.13;;;14.10;93.40;;;;;;5114582;28;20054;-58
2021/12/15 13:55:38;;;;;;;5.28;2.97;;;14.00;93.40;;;;;;5047879;28;20416;-58
2021/12/15 13:58:09;;;;;;;3.67;2.63;;;13.90;93.40;;;;;;5079427;28;20487;-57
2021/12/15 14:00:58;;;;;;;5.03;2.78;;;13.90;93.30;;;;;;5114123;28;20134;-58
2021/12/15 14:03:48;;;;;;;4.72;2.38;;;13.80;93.30;;;;;;5114275;28;20046;-57
2021/12/15 14:06:22;;;;;;;5.72;3.35;;;13.80;93.50;;;;;;5114488;28;20162;-57
2021/12/15 14:08:55;;;;;;;4.32;2.45;;;13.80;93.50;;;;;;5096455;28;20024;-58
2021/12/15 14:11:25;;;;;;;6.60;3.13;;;13.70;93.20;;;;;;5114531;28;20519;-56
2021/12/15 14:14:00;;;;;;;5.15;2.90;;;13.70;93.20;;;;;;5096278;28;20039;-57
2021/12/15 14:16:40;;;;;;;4.72;2.88;;;13.70;93.40;;;;;;5114159;28;20131;-58
2021/12/15 14:19:14;;;;;;;5.15;2.83;;;13.50;93.30;;;;;;5114160;28;20043;-58
2021/12/15 14:21:46;;;;;;;3.60;2.22;;;13.50;93.00;;;;;;5114039;28;20486;-58
2021/12/15 14:24:17;;;;;;;3.80;2.35;;;13.50;93.00;;;;;;5114027;28;20072;-58
2021/12/15 14:26:46;;;;;;;3.45;2.55;;;13.40;93.10;;;;;;5114741;28;20042;-58
2021/12/15 14:29:24;;;;;;;4.55;2.38;;;13.40;93.20;;;;;;5114101;28;20493;-59
2021/12/15 14:31:55;;;;;;;5.25;3.42;;;13.40;93.30;;;;;;5096157;28;20047;-61
2021/12/15 14:34:30;;;;;;;4.60;2.67;;;13.30;93.60;;;;;;5113562;28;20123;-62
2021/12/15 14:37:03;;;;;;;4.93;2.20;;;13.40;93.40;;;;;;5114083;28;20063;-62
2021/12/15 14:39:44;;;;;;;5.88;2.50;;;13.40;93.60;;;;;;5095974;28;20042;-62
2021/12/15 14:42:15;;;;;;;6.40;2.10;;;13.40;92.80;;;;;;5095906;28;20046;-62
2021/12/15 14:44:49;;;;;;;3.90;1.90;;;13.30;92.70;;;;;;5095884;28;20169;-62
2021/12/15 14:47:20;;;;;;;2.17;1.77;;;13.20;92.70;;;;;;5095678;28;20066;-62
2021/12/15 14:49:51;;;;;;;2.83;1.83;;;13.20;92.70;;;;;;5078833;28;20092;-62
2021/12/15 14:52:23;;;;;;;8.82;2.42;;;13.10;92.80;;;;;;5095935;28;20039;-62
2021/12/15 14:54:54;;;;;;;4.25;2.67;;;13.10;93.00;;;;;;5113775;28;20088;-62